Time;durP1;ratioP1;P1;durP2;ratioP2;P2;SDS_P1;SDS_P2;PMS_P1;PMS_P2;Temp;Humidity;BMP_temperature;BMP_pressure;BME280_temperature;BME280_humidity;BME280_pressure;Samples;Min_cycle;Max_cycle;Signal;HPM_P1;HPM_P2
2022/07/12 00:01:55;;;;;;;3.15;2.63;;;15.80;99.90;;;;;;5090064;28;20047;-85
2022/07/12 00:04:21;;;;;;;1.88;1.35;;;16.50;99.90;;;;;;5093419;28;20075;-85
2022/07/12 00:06:47;;;;;;;2.17;1.67;;;15.70;99.90;;;;;;5092385;28;20130;-86
2022/07/12 00:09:13;;;;;;;2.10;1.70;;;15.70;99.90;;;;;;5070345;28;20044;-86
2022/07/12 00:11:38;;;;;;;2.17;1.60;;;15.70;99.90;;;;;;5105291;28;20052;-85
2022/07/12 00:14:05;;;;;;;2.65;1.65;;;15.70;99.90;;;;;;5086755;28;20043;-86
2022/07/12 00:16:31;;;;;;;2.25;1.63;;;15.70;99.90;;;;;;5071453;28;20485;-86
2022/07/12 00:18:56;;;;;;;3.38;1.50;;;15.70;99.90;;;;;;5071500;28;20043;-86
2022/07/12 00:21:22;;;;;;;2.08;1.80;;;15.70;99.90;;;;;;5087084;28;20410;-85
2022/07/12 00:23:48;;;;;;;2.33;2.00;;;15.70;99.90;;;;;;5105040;28;20035;-85
2022/07/12 00:26:14;;;;;;;2.78;2.15;;;15.70;99.90;;;;;;5087140;28;20050;-85
2022/07/12 00:28:39;;;;;;;2.47;2.13;;;15.70;99.90;;;;;;5054307;28;20060;-86
2022/07/12 00:31:05;;;;;;;2.33;2.08;;;15.70;99.90;;;;;;5103465;28;20047;-85
2022/07/12 00:33:31;;;;;;;3.15;2.30;;;15.80;99.90;;;;;;5087637;28;20075;-86
2022/07/12 00:35:57;;;;;;;3.42;1.95;;;15.70;99.90;;;;;;5070280;28;20122;-85
2022/07/12 00:38:23;;;;;;;3.15;2.47;;;15.70;99.90;;;;;;5087420;28;20043;-86
2022/07/12 00:40:49;;;;;;;3.30;2.63;;;15.80;99.90;;;;;;5054636;28;20403;-86
2022/07/12 00:43:15;;;;;;;3.88;3.15;;;15.70;99.90;;;;;;5086879;28;20035;-86
2022/07/12 00:45:41;;;;;;;4.22;3.03;;;15.70;99.90;;;;;;5071427;28;20032;-85
2022/07/12 00:48:08;;;;;;;3.72;3.03;;;16.70;99.90;;;;;;5103094;28;20058;-86
2022/07/12 00:50:34;;;;;;;4.15;2.83;;;15.70;99.90;;;;;;5070028;28;20123;-85
2022/07/12 00:53:00;;;;;;;3.35;2.92;;;15.70;99.90;;;;;;5103741;28;20054;-85
2022/07/12 00:55:26;;;;;;;3.45;3.00;;;15.70;99.90;;;;;;5103712;28;20509;-85
2022/07/12 00:57:51;;;;;;;4.05;3.05;;;15.60;99.90;;;;;;5087552;28;20121;-86
2022/07/12 01:00:26;;;;;;;4.18;2.50;;;15.60;99.90;;;;;;5069463;28;20079;-85
2022/07/12 01:02:54;;;;;;;3.05;2.75;;;15.60;99.90;;;;;;5105055;28;20199;-85
2022/07/12 01:05:20;;;;;;;2.90;2.40;;;15.60;99.90;;;;;;5069405;28;20058;-86
2022/07/12 01:07:46;;;;;;;2.90;2.30;;;15.60;99.90;;;;;;5087375;28;20040;-85
2022/07/12 01:10:12;;;;;;;3.03;2.13;;;15.00;99.90;;;;;;5069942;28;20050;-86
2022/07/12 01:12:38;;;;;;;3.42;2.92;;;15.50;99.90;;;;;;5086554;28;20185;-86
2022/07/12 01:15:08;;;;;;;3.13;2.67;;;15.60;99.90;;;;;;5088056;28;20079;-86
2022/07/12 01:17:34;;;;;;;3.60;2.83;;;15.50;99.90;;;;;;5069722;28;20039;-86
2022/07/12 01:20:00;;;;;;;6.00;2.60;;;15.70;99.90;;;;;;5087539;28;20138;-87
2022/07/12 01:22:32;;;;;;;6.07;2.00;;;15.70;99.90;;;;;;5069489;28;20081;-86
2022/07/12 01:24:59;;;;;;;3.25;2.47;;;15.60;99.90;;;;;;5086812;28;20032;-85
2022/07/12 01:27:24;;;;;;;3.80;2.55;;;15.60;99.90;;;;;;5108041;27;20104;-86
2022/07/12 01:29:50;;;;;;;3.30;2.22;;;15.60;99.90;;;;;;5077045;27;20047;-86
2022/07/12 01:32:25;;;;;;;3.67;2.78;;;15.50;99.90;;;;;;5078355;27;20046;-85
2022/07/12 01:34:57;;;;;;;3.35;2.45;;;15.60;99.90;;;;;;5110444;27;20051;-86
2022/07/12 01:37:24;;;;;;;3.05;2.50;;;15.60;99.90;;;;;;5094547;27;20054;-86
2022/07/12 01:39:55;;;;;;;2.88;2.00;;;15.60;99.90;;;;;;5076201;27;20093;-85
2022/07/12 01:42:22;;;;;;;2.72;1.98;;;15.60;99.90;;;;;;5094326;27;20588;-85
2022/07/12 01:44:50;;;;;;;2.38;2.00;;;15.60;99.90;;;;;;5094341;27;20404;-86
2022/07/12 01:47:23;;;;;;;3.33;2.22;;;15.60;99.90;;;;;;5093394;27;20039;-86
2022/07/12 01:49:48;;;;;;;3.00;2.10;;;15.60;99.90;;;;;;5079248;27;20462;-86
2022/07/12 01:52:14;;;;;;;3.60;2.47;;;15.60;99.90;;;;;;5093402;27;20130;-86
2022/07/12 01:54:42;;;;;;;3.13;2.15;;;15.70;99.90;;;;;;5094777;27;20085;-86
2022/07/12 01:57:08;;;;;;;3.63;2.95;;;15.60;99.90;;;;;;5095844;27;20050;-86
2022/07/12 01:59:34;;;;;;;3.22;2.60;;;15.60;99.90;;;;;;5102404;27;20473;-86
2022/07/12 02:02:00;;;;;;;2.40;2.20;;;16.90;99.90;;;;;;5097019;27;20051;-86
2022/07/12 02:04:26;;;;;;;4.50;2.22;;;15.50;99.90;;;;;;5093434;27;20482;-86
2022/07/12 02:06:52;;;;;;;4.78;2.20;;;15.60;99.90;;;;;;5111215;27;20135;-87
2022/07/12 02:09:18;;;;;;;2.28;2.00;;;15.60;99.90;;;;;;5092821;27;20047;-86
2022/07/12 02:11:46;;;;;;;3.17;2.28;;;15.60;99.90;;;;;;5077031;27;20047;-86
2022/07/12 02:14:12;;;;;;;3.67;2.33;;;15.60;99.90;;;;;;5076576;27;20039;-87
2022/07/12 02:16:39;;;;;;;2.90;2.30;;;15.60;99.90;;;;;;5059638;27;20107;-86
2022/07/12 02:19:05;;;;;;;3.03;2.47;;;15.60;99.90;;;;;;5093698;27;20055;-87
2022/07/12 02:21:30;;;;;;;4.57;2.88;;;15.50;99.90;;;;;;5059657;27;20047;-87
2022/07/12 02:23:56;;;;;;;3.22;2.42;;;15.50;99.90;;;;;;5111319;27;20040;-86
2022/07/12 02:26:22;;;;;;;3.15;2.55;;;15.50;99.90;;;;;;5075490;27;20046;-86
2022/07/12 02:28:48;;;;;;;4.35;2.45;;;15.50;99.90;;;;;;5092560;28;20051;-87
2022/07/12 02:31:14;;;;;;;6.85;3.60;;;16.40;99.90;;;;;;5074321;28;20081;-86
2022/07/12 02:33:39;;;;;;;3.08;2.67;;;15.60;99.90;;;;;;5058648;28;20074;-87
2022/07/12 02:36:05;;;;;;;2.63;2.25;;;15.50;99.90;;;;;;5075293;28;20039;-87
2022/07/12 02:38:31;;;;;;;3.78;2.65;;;15.50;99.90;;;;;;5091032;28;20046;-87
2022/07/12 02:40:57;;;;;;;3.97;2.28;;;15.50;99.90;;;;;;5075459;28;20035;-86
2022/07/12 02:43:28;;;;;;;2.70;2.10;;;15.50;99.90;;;;;;5074898;28;20039;-86
2022/07/12 02:46:02;;;;;;;2.95;2.33;;;15.50;99.90;;;;;;5092242;28;20039;-87
2022/07/12 02:48:28;;;;;;;3.10;2.40;;;16.30;99.90;;;;;;5092273;28;20042;-87
2022/07/12 02:50:53;;;;;;;2.63;2.38;;;15.50;99.90;;;;;;5074973;28;20045;-86
2022/07/12 02:53:19;;;;;;;3.65;2.88;;;15.50;99.90;;;;;;5075074;28;20133;-87
2022/07/12 02:55:45;;;;;;;3.15;2.80;;;15.40;99.90;;;;;;5090675;28;20039;-87
2022/07/12 02:58:14;;;;;;;3.72;2.30;;;15.40;99.90;;;;;;5092245;28;20092;-87
2022/07/12 03:00:40;;;;;;;4.35;2.90;;;15.40;99.90;;;;;;5074323;28;20039;-87
2022/07/12 03:03:08;;;;;;;3.30;2.55;;;15.40;99.90;;;;;;5075124;28;20054;-87
2022/07/12 03:05:35;;;;;;;4.80;2.72;;;15.40;99.90;;;;;;5107902;28;20065;-87
2022/07/12 03:08:02;;;;;;;8.05;2.95;;;15.40;99.90;;;;;;5073962;28;20039;-86
2022/07/12 03:10:28;;;;;;;3.22;2.88;;;15.40;99.90;;;;;;5091771;28;20051;-87
2022/07/12 03:12:53;;;;;;;4.28;3.15;;;15.40;99.90;;;;;;5073779;28;20039;-87
2022/07/12 03:15:19;;;;;;;5.97;3.05;;;15.40;99.90;;;;;;5074987;28;20066;-86
2022/07/12 03:17:45;;;;;;;7.07;3.08;;;15.40;99.90;;;;;;5073346;28;20101;-86
2022/07/12 03:20:11;;;;;;;5.55;3.25;;;15.30;99.90;;;;;;5108608;28;20111;-86
2022/07/12 03:22:41;;;;;;;5.80;3.40;;;15.30;99.90;;;;;;5090854;28;20096;-86
2022/07/12 03:25:08;;;;;;;6.18;3.25;;;15.40;99.90;;;;;;5057399;28;20050;-86
2022/07/12 03:27:34;;;;;;;7.40;3.70;;;15.30;99.90;;;;;;5048447;27;1212946;-86
2022/07/12 03:30:00;;;;;;;3.85;2.63;;;15.30;99.90;;;;;;5074309;27;20074;-87
2022/07/12 03:32:26;;;;;;;3.85;3.45;;;15.30;99.90;;;;;;5092455;27;20085;-87
2022/07/12 03:34:52;;;;;;;5.20;3.78;;;15.30;99.90;;;;;;5108004;27;20043;-86
2022/07/12 03:37:17;;;;;;;4.03;3.55;;;15.30;99.90;;;;;;5092025;27;20043;-86
2022/07/12 03:39:43;;;;;;;4.88;3.40;;;15.30;99.90;;;;;;5074834;27;20127;-86
2022/07/12 03:42:11;;;;;;;6.43;4.30;;;15.30;99.90;;;;;;5092201;27;20437;-86
2022/07/12 03:44:36;;;;;;;4.30;3.38;;;15.30;99.90;;;;;;5075678;27;20039;-86
2022/07/12 03:47:02;;;;;;;4.28;3.63;;;15.30;99.90;;;;;;5091088;27;20065;-86
2022/07/12 03:49:28;;;;;;;6.30;3.60;;;15.30;99.90;;;;;;5058853;27;20045;-86
2022/07/12 03:51:54;;;;;;;5.22;4.65;;;15.30;99.90;;;;;;5110796;27;20097;-86
2022/07/12 03:54:20;;;;;;;5.85;4.05;;;15.30;99.90;;;;;;5103981;27;20078;-87
2022/07/12 03:59:30;;;;;;;4.82;4.03;;;15.40;99.90;;;;;;5093723;27;20134;-86
2022/07/12 04:01:55;;;;;;;5.43;4.00;;;15.40;99.90;;;;;;5109220;27;20122;-86
2022/07/12 04:04:21;;;;;;;7.15;4.10;;;15.40;99.90;;;;;;5089945;27;20047;-87
2022/07/12 04:06:47;;;;;;;8.13;3.80;;;16.00;99.90;;;;;;5108757;27;20043;-87
2022/07/12 04:09:13;;;;;;;4.80;4.13;;;15.80;99.90;;;;;;5056672;27;20355;-87
2022/07/12 04:11:39;;;;;;;4.97;4.00;;;15.40;99.90;;;;;;5092283;27;20045;-87
2022/07/12 04:14:05;;;;;;;4.97;4.20;;;15.40;99.90;;;;;;5073962;27;20479;-86
2022/07/12 04:16:31;;;;;;;7.28;4.85;;;15.50;99.90;;;;;;5057215;27;20095;-86
2022/07/12 04:18:57;;;;;;;6.50;4.97;;;15.40;99.90;;;;;;5108992;27;20316;-87
2022/07/12 04:21:23;;;;;;;5.85;4.80;;;15.40;99.90;;;;;;5073605;27;20443;-87
2022/07/12 04:23:48;;;;;;;5.55;5.03;;;15.40;99.90;;;;;;5075289;27;20046;-86
2022/07/12 04:26:14;;;;;;;5.60;4.93;;;15.40;99.90;;;;;;5073645;27;20044;-87
2022/07/12 04:28:40;;;;;;;8.07;4.97;;;15.40;99.90;;;;;;5071086;28;20051;-87
2022/07/12 04:31:06;;;;;;;7.05;5.60;;;15.40;99.90;;;;;;5086768;28;20048;-86
2022/07/12 04:33:33;;;;;;;5.38;4.65;;;16.10;99.90;;;;;;5087580;28;20052;-87
2022/07/12 04:35:58;;;;;;;4.43;3.97;;;15.40;99.90;;;;;;5087767;28;20517;-87
2022/07/12 04:38:24;;;;;;;5.30;4.43;;;15.40;99.90;;;;;;5086974;28;20076;-88
2022/07/12 04:40:50;;;;;;;8.10;4.97;;;15.40;99.90;;;;;;5088244;28;20144;-87
2022/07/12 04:43:16;;;;;;;6.93;5.13;;;15.40;99.90;;;;;;5086917;28;20058;-87
2022/07/12 04:45:45;;;;;;;7.07;5.43;;;15.40;99.90;;;;;;5054325;28;20043;-88
2022/07/12 04:48:11;;;;;;;7.53;5.47;;;15.40;99.90;;;;;;5086976;28;20039;-88
2022/07/12 04:50:37;;;;;;;6.82;5.40;;;15.40;99.90;;;;;;5087784;28;20599;-86
2022/07/12 04:53:03;;;;;;;10.20;6.05;;;15.50;99.90;;;;;;5103833;28;20257;-84
2022/07/12 04:55:28;;;;;;;7.38;5.78;;;15.60;99.90;;;;;;5086671;28;20441;-83
2022/07/12 04:57:54;;;;;;;7.90;5.82;;;15.50;99.90;;;;;;5087805;28;20047;-84
2022/07/12 05:00:20;;;;;;;10.82;7.32;;;15.50;99.90;;;;;;5103037;28;20043;-83
2022/07/12 05:02:46;;;;;;;8.02;5.65;;;15.50;99.90;;;;;;5087694;28;20736;-84
2022/07/12 05:05:12;;;;;;;9.75;6.45;;;14.80;99.90;;;;;;5086088;28;20040;-84
2022/07/12 05:07:38;;;;;;;7.15;5.93;;;15.50;99.90;;;;;;5070302;28;20168;-84
2022/07/12 05:10:04;;;;;;;7.85;5.53;;;15.50;99.90;;;;;;5069863;28;20044;-83
2022/07/12 05:12:30;;;;;;;6.20;4.78;;;15.50;99.90;;;;;;5069913;28;20083;-83
2022/07/12 05:14:55;;;;;;;6.32;4.70;;;15.50;99.90;;;;;;5087456;28;20079;-85
2022/07/12 05:17:21;;;;;;;9.18;4.30;;;15.50;99.90;;;;;;5086228;28;20108;-83
2022/07/12 05:19:47;;;;;;;5.82;3.58;;;15.50;99.90;;;;;;5087648;28;20050;-84
2022/07/12 05:22:12;;;;;;;5.53;4.03;;;15.50;99.90;;;;;;5102839;28;20338;-84
2022/07/12 05:24:38;;;;;;;6.22;4.18;;;15.60;99.90;;;;;;5070610;28;20051;-84
2022/07/12 05:27:04;;;;;;;6.68;4.38;;;15.70;99.90;;;;;;5103418;28;20040;-84
2022/07/12 05:29:30;;;;;;;7.18;4.40;;;15.60;99.90;;;;;;5086009;28;20105;-84
2022/07/12 05:31:56;;;;;;;6.28;4.68;;;15.60;99.90;;;;;;5087708;28;20126;-85
2022/07/12 05:34:22;;;;;;;7.45;5.25;;;15.70;99.90;;;;;;5085959;28;20105;-81
2022/07/12 05:36:48;;;;;;;8.48;5.03;;;15.70;99.90;;;;;;5087315;28;20444;-81
2022/07/12 05:39:14;;;;;;;5.82;4.47;;;16.40;99.90;;;;;;5085754;28;20043;-80
2022/07/12 05:41:39;;;;;;;5.65;4.28;;;15.90;99.90;;;;;;5070383;28;20995;-81
2022/07/12 05:44:05;;;;;;;5.80;4.15;;;16.10;99.90;;;;;;5103349;28;20090;-81
2022/07/12 05:46:31;;;;;;;5.65;4.00;;;16.20;99.90;;;;;;5088289;28;20047;-82
2022/07/12 05:48:57;;;;;;;8.13;4.25;;;16.10;99.90;;;;;;5070754;28;20055;-81
2022/07/12 05:54:07;;;;;;;7.50;4.95;;;16.20;99.90;;;;;;5104440;28;20410;-81
2022/07/12 05:56:32;;;;;;;6.13;4.60;;;16.20;99.90;;;;;;5085833;28;20039;-81
2022/07/12 05:58:58;;;;;;;5.75;4.30;;;16.30;99.90;;;;;;5086533;28;20483;-80
2022/07/12 06:01:25;;;;;;;7.28;4.18;;;16.30;99.90;;;;;;5086158;28;20047;-81
2022/07/12 06:03:53;;;;;;;6.15;5.10;;;17.40;99.90;;;;;;5070053;28;20043;-80
2022/07/12 06:06:19;;;;;;;5.82;4.30;;;16.40;99.90;;;;;;5086819;28;20051;-80
2022/07/12 06:08:45;;;;;;;8.80;3.55;;;16.60;99.90;;;;;;5102209;28;20052;-81
2022/07/12 06:11:11;;;;;;;5.38;2.75;;;16.60;99.90;;;;;;5087171;28;20044;-81
2022/07/12 06:13:37;;;;;;;4.55;2.97;;;16.60;99.90;;;;;;5105531;28;20040;-81
2022/07/12 06:16:05;;;;;;;3.30;2.70;;;16.70;99.90;;;;;;5073705;28;20541;-81
2022/07/12 06:18:34;;;;;;;4.05;2.55;;;16.80;99.90;;;;;;5106680;28;20502;-81
2022/07/12 06:21:00;;;;;;;3.75;3.03;;;17.00;99.90;;;;;;5090067;28;20394;-82
2022/07/12 06:23:26;;;;;;;3.60;2.83;;;17.10;99.90;;;;;;5056795;28;20044;-81
2022/07/12 06:25:51;;;;;;;4.60;3.20;;;17.10;99.90;;;;;;5072148;28;20046;-82
2022/07/12 06:28:17;;;;;;;7.45;3.55;;;17.20;99.90;;;;;;5090497;28;20163;-81
2022/07/12 06:30:43;;;;;;;4.25;3.08;;;17.20;99.90;;;;;;5088427;28;20106;-81
2022/07/12 06:33:09;;;;;;;6.18;3.20;;;17.30;99.90;;;;;;5073202;28;20035;-81
2022/07/12 06:35:35;;;;;;;3.72;2.47;;;17.30;99.90;;;;;;5089111;28;20043;-81
2022/07/12 06:38:00;;;;;;;4.40;3.10;;;17.40;99.90;;;;;;5073006;28;20134;-81
2022/07/12 06:40:26;;;;;;;3.47;2.65;;;17.50;99.90;;;;;;5090040;28;20131;-81
2022/07/12 06:42:52;;;;;;;3.83;2.58;;;17.50;99.90;;;;;;5089190;28;20070;-82
2022/07/12 06:45:17;;;;;;;5.55;2.83;;;17.60;99.90;;;;;;5107347;28;20473;-81
2022/07/12 06:47:44;;;;;;;4.82;2.42;;;17.60;99.90;;;;;;5105583;28;20070;-81
2022/07/12 06:50:10;;;;;;;2.75;2.53;;;17.80;99.90;;;;;;5072870;28;20075;-82
2022/07/12 06:52:35;;;;;;;3.58;1.88;;;17.80;99.90;;;;;;5071944;28;20075;-82
2022/07/12 06:55:01;;;;;;;7.18;2.00;;;17.80;99.90;;;;;;5089512;28;20085;-81
2022/07/12 06:57:29;;;;;;;4.35;1.90;;;17.90;99.90;;;;;;5089528;28;20134;-82
2022/07/12 06:59:56;;;;;;;3.72;1.90;;;18.00;99.90;;;;;;5088366;28;20055;-81
2022/07/12 07:02:22;;;;;;;2.38;1.92;;;18.10;99.90;;;;;;5073074;28;20099;-81
2022/07/12 07:04:48;;;;;;;2.47;1.75;;;18.20;99.90;;;;;;5087881;28;20040;-81
2022/07/12 07:07:13;;;;;;;2.08;1.88;;;18.30;99.90;;;;;;5106543;28;20048;-82
2022/07/12 07:09:39;;;;;;;6.05;2.28;;;18.40;99.90;;;;;;5071766;28;20040;-81
2022/07/12 07:12:05;;;;;;;6.55;2.30;;;18.40;99.90;;;;;;5072153;28;20482;-81
2022/07/12 07:14:31;;;;;;;4.10;2.13;;;18.40;99.90;;;;;;5072340;28;20572;-81
2022/07/12 07:16:56;;;;;;;4.32;2.13;;;18.50;99.90;;;;;;5088235;28;20126;-81
2022/07/12 07:19:24;;;;;;;4.10;2.13;;;19.00;99.90;;;;;;5072576;28;20035;-81
2022/07/12 07:21:50;;;;;;;4.10;2.63;;;18.70;99.90;;;;;;5104922;28;20043;-81
2022/07/12 07:24:16;;;;;;;8.60;2.55;;;18.90;99.90;;;;;;5088262;28;20039;-82
2022/07/12 07:26:41;;;;;;;6.00;2.58;;;19.00;99.90;;;;;;5071131;28;20109;-82
2022/07/12 07:31:51;;;;;;;5.03;2.05;;;18.40;99.90;;;;;;5106079;28;20056;-82
2022/07/12 07:34:17;;;;;;;6.35;1.90;;;19.40;99.90;;;;;;5104723;28;20065;-81
2022/07/12 07:36:42;;;;;;;9.88;2.42;;;19.60;99.90;;;;;;5072829;28;20040;-82
2022/07/12 07:39:09;;;;;;;6.07;1.80;;;19.80;99.90;;;;;;5087981;28;20079;-83
2022/07/12 07:41:35;;;;;;;2.90;1.83;;;19.90;99.90;;;;;;5106686;28;20381;-83
2022/07/12 07:44:01;;;;;;;5.40;1.90;;;20.10;99.90;;;;;;5087717;28;20316;-82
2022/07/12 07:46:27;;;;;;;3.78;1.42;;;20.20;99.90;;;;;;5105104;28;20050;-80
2022/07/12 07:48:52;;;;;;;2.17;1.77;;;20.30;99.90;;;;;;5105219;28;20107;-80
2022/07/12 07:51:19;;;;;;;5.50;1.67;;;20.40;99.90;;;;;;5087851;28;20035;-80
2022/07/12 07:53:44;;;;;;;8.63;1.48;;;20.50;99.90;;;;;;5088977;28;20111;-80
2022/07/12 07:56:10;;;;;;;2.53;1.58;;;20.60;99.90;;;;;;5104521;28;20043;-80
2022/07/12 07:58:36;;;;;;;1.70;1.13;;;20.70;99.90;;;;;;5088731;28;20486;-80
2022/07/12 08:01:01;;;;;;;2.35;1.00;;;20.80;99.90;;;;;;5070323;28;20044;-80
2022/07/12 08:03:27;;;;;;;1.55;1.05;;;21.00;99.90;;;;;;5071261;28;20043;-80
2022/07/12 08:05:57;;;;;;;2.13;1.65;;;20.60;99.90;;;;;;5087664;28;20039;-80
2022/07/12 08:08:23;;;;;;;1.20;1.00;;;21.30;99.90;;;;;;5070960;28;20454;-80
2022/07/12 08:10:52;;;;;;;2.28;1.08;;;21.50;99.90;;;;;;5105968;28;20062;-80
2022/07/12 08:13:18;;;;;;;0.95;0.75;;;21.70;99.90;;;;;;5087003;28;20040;-80
2022/07/12 08:15:44;;;;;;;2.53;1.30;;;21.70;99.90;;;;;;5105098;28;20458;-80
2022/07/12 08:18:10;;;;;;;1.70;1.10;;;21.90;99.90;;;;;;5069891;28;20036;-80
2022/07/12 08:20:35;;;;;;;2.30;1.05;;;22.00;99.90;;;;;;5070710;28;20117;-79
2022/07/12 08:23:01;;;;;;;1.60;0.90;;;22.10;99.90;;;;;;5070726;28;20134;-79
2022/07/12 08:25:28;;;;;;;2.63;1.15;;;22.20;99.90;;;;;;5070364;28;20499;-80
2022/07/12 08:27:54;;;;;;;1.45;0.90;;;22.20;99.90;;;;;;5070871;28;20055;-80
2022/07/12 08:30:20;;;;;;;1.65;1.10;;;22.20;99.90;;;;;;5085995;28;20054;-80
2022/07/12 08:32:46;;;;;;;2.25;0.75;;;22.20;99.90;;;;;;5104692;28;20032;-80
2022/07/12 08:35:12;;;;;;;0.90;0.80;;;22.20;99.90;;;;;;5102744;28;20436;-80
2022/07/12 08:37:38;;;;;;;2.47;0.98;;;22.20;99.90;;;;;;5070882;28;20059;-80
2022/07/12 08:40:05;;;;;;;2.13;1.30;;;22.20;99.90;;;;;;5104075;28;20487;-80
2022/07/12 08:42:32;;;;;;;1.52;1.13;;;22.30;99.90;;;;;;5087378;28;20043;-80
2022/07/12 08:44:58;;;;;;;1.85;1.15;;;22.30;99.90;;;;;;5104296;28;20079;-80
2022/07/12 08:47:24;;;;;;;1.45;0.90;;;22.30;99.90;;;;;;5068824;28;20046;-79
2022/07/12 08:50:27;;;;;;;2.05;0.77;;;22.30;99.90;;;;;;5104675;28;20043;-79
2022/07/12 08:52:53;;;;;;;2.65;1.00;;;22.40;99.90;;;;;;5035967;28;20123;-79
2022/07/12 08:55:24;;;;;;;1.45;0.82;;;22.40;99.90;;;;;;5087089;28;20383;-80
2022/07/12 08:57:52;;;;;;;1.13;1.02;;;22.40;99.90;;;;;;5104770;28;20050;-80
2022/07/12 09:00:19;;;;;;;1.50;1.15;;;22.50;99.90;;;;;;5085579;28;20075;-79
2022/07/12 09:02:48;;;;;;;1.00;0.80;;;22.60;99.90;;;;;;5087481;28;20048;-79
2022/07/12 09:05:14;;;;;;;2.03;0.93;;;22.70;99.90;;;;;;5102366;28;20040;-80
2022/07/12 09:07:40;;;;;;;5.03;1.10;;;22.90;99.90;;;;;;5070452;28;20233;-80
2022/07/12 09:10:08;;;;;;;3.38;0.70;;;22.90;99.90;;;;;;5086158;28;20046;-80
2022/07/12 09:12:35;;;;;;;1.30;1.10;;;23.10;99.90;;;;;;5086343;28;20521;-79
2022/07/12 09:15:21;;;;;;;2.30;1.20;;;23.20;99.90;;;;;;5104574;28;20134;-80
2022/07/12 09:18:14;;;;;;;3.22;0.80;;;23.30;99.90;;;;;;5085117;28;20048;-80
2022/07/12 09:20:41;;;;;;;2.05;1.20;;;23.50;99.90;;;;;;5071054;28;20077;-80
2022/07/12 09:23:09;;;;;;;1.17;0.98;;;23.70;99.90;;;;;;5104914;28;20059;-81
2022/07/12 09:25:37;;;;;;;1.25;0.90;;;23.80;99.90;;;;;;5103380;28;20432;-81
2022/07/12 09:28:07;;;;;;;1.90;1.10;;;23.90;99.90;;;;;;5070670;28;20075;-81
2022/07/12 09:30:36;;;;;;;1.90;1.40;;;23.90;99.90;;;;;;5102530;28;20044;-80
2022/07/12 09:36:12;;;;;;;2.28;1.10;;;23.90;99.90;;;;;;5104081;28;20131;-79
2022/07/12 09:38:40;;;;;;;2.92;1.17;;;23.80;99.90;;;;;;5086714;28;20130;-81
2022/07/12 09:41:07;;;;;;;1.88;1.50;;;23.70;99.90;;;;;;5087727;28;20040;-81
2022/07/12 09:43:33;;;;;;;1.60;1.08;;;23.70;99.90;;;;;;5085728;28;20048;-81
2022/07/12 09:46:00;;;;;;;1.80;1.05;;;23.80;99.90;;;;;;5104637;28;20047;-81
2022/07/12 09:48:29;;;;;;;1.35;0.85;;;23.90;99.90;;;;;;5088934;28;20089;-81
2022/07/12 09:50:57;;;;;;;0.98;0.73;;;24.10;99.90;;;;;;5090755;28;20142;-81
2022/07/12 09:53:46;;;;;;;1.13;0.60;;;24.10;99.90;;;;;;5108245;28;20078;-81
2022/07/12 09:56:17;;;;;;;1.23;0.90;;;24.20;99.90;;;;;;5089478;28;20073;-82
2022/07/12 09:58:51;;;;;;;2.95;1.00;;;24.20;99.90;;;;;;5073834;28;20046;-80
2022/07/12 10:01:17;;;;;;;5.72;1.10;;;24.30;99.90;;;;;;5106749;28;20463;-81
2022/07/12 10:03:44;;;;;;;3.88;0.90;;;24.40;99.90;;;;;;5090493;28;20478;-81
2022/07/12 10:06:12;;;;;;;2.45;1.10;;;24.60;99.90;;;;;;5091503;28;20051;-81
2022/07/12 10:08:38;;;;;;;1.85;1.02;;;24.80;99.90;;;;;;5089386;28;20036;-81
2022/07/12 10:11:05;;;;;;;1.80;1.10;;;24.90;99.90;;;;;;5091111;28;20494;-81
2022/07/12 10:13:31;;;;;;;2.53;1.40;;;25.00;99.90;;;;;;5072339;28;20503;-81
2022/07/12 10:16:01;;;;;;;1.90;1.13;;;25.00;99.90;;;;;;5090635;28;20079;-81
2022/07/12 10:18:28;;;;;;;3.50;0.75;;;25.00;99.90;;;;;;5106218;28;20122;-80
2022/07/12 10:20:54;;;;;;;0.75;0.65;;;25.00;99.90;;;;;;5107088;28;20039;-80
2022/07/12 10:23:20;;;;;;;1.15;0.63;;;25.00;99.90;;;;;;5090589;28;20156;-80
2022/07/12 10:25:49;;;;;;;1.38;0.70;;;24.90;99.90;;;;;;5106256;28;20123;-80
2022/07/12 10:28:15;;;;;;;1.17;0.77;;;24.80;99.90;;;;;;5107357;28;20181;-81
2022/07/12 10:30:47;;;;;;;0.93;0.52;;;24.30;99.90;;;;;;5071983;28;20101;-82
2022/07/12 10:33:19;;;;;;;1.95;0.90;;;24.90;99.90;;;;;;5058275;28;20036;-81
2022/07/12 10:36:07;;;;;;;1.13;0.75;;;25.00;99.90;;;;;;5090034;28;20417;-81
2022/07/12 10:38:34;;;;;;;1.65;0.75;;;25.10;99.90;;;;;;5106008;28;20047;-82
2022/07/12 10:41:20;;;;;;;0.70;0.50;;;25.30;99.90;;;;;;5107758;28;20071;-81
2022/07/12 10:44:04;;;;;;;0.80;0.40;;;25.60;99.90;;;;;;5088440;28;20044;-82
2022/07/12 10:46:30;;;;;;;1.85;0.50;;;25.80;99.90;;;;;;5090366;28;20119;-81
2022/07/12 10:49:35;;;;;;;3.50;0.60;;;26.00;99.90;;;;;;5106831;28;20047;-81
2022/07/12 10:52:10;;;;;;;1.63;0.40;;;26.10;99.90;;;;;;4991232;28;20049;-82
2022/07/12 10:54:55;;;;;;;1.52;0.75;;;26.20;99.90;;;;;;5009270;28;20476;-81
2022/07/12 10:57:40;;;;;;;0.88;0.55;;;26.30;99.90;;;;;;5071220;28;20055;-81
2022/07/12 11:00:08;;;;;;;0.98;0.50;;;26.30;99.90;;;;;;5105618;28;20051;-82
2022/07/12 11:02:34;;;;;;;1.95;0.57;;;26.40;99.90;;;;;;5090531;28;20047;-81
2022/07/12 11:05:00;;;;;;;0.40;0.20;;;26.50;99.90;;;;;;5088254;28;20079;-81
2022/07/12 11:07:30;;;;;;;0.88;0.30;;;26.60;99.90;;;;;;5107514;28;20082;-81
2022/07/12 11:09:56;;;;;;;0.20;0.20;;;26.80;99.90;;;;;;5088761;28;20392;-81
2022/07/12 11:12:29;;;;;;;0.90;0.38;;;27.10;99.90;;;;;;5089440;28;20127;-81
2022/07/12 11:14:56;;;;;;;0.70;0.30;;;27.20;99.90;;;;;;5089529;28;20044;-80
2022/07/12 11:17:30;;;;;;;1.95;0.40;;;27.30;99.90;;;;;;5087851;28;20127;-80
2022/07/12 11:20:13;;;;;;;0.43;0.30;;;27.40;98.90;;;;;;5107146;28;20391;-81
2022/07/12 11:22:43;;;;;;;0.50;0.40;;;27.40;96.90;;;;;;5071050;28;20165;-81
2022/07/12 11:25:11;;;;;;;0.63;0.40;;;27.40;98.40;;;;;;5089149;28;20404;-81
2022/07/12 11:27:38;;;;;;;0.28;0.20;;;27.50;98.00;;;;;;5105623;28;20517;-81
2022/07/12 11:30:05;;;;;;;0.98;0.40;;;27.50;98.10;;;;;;5104869;28;20052;-81
2022/07/12 11:32:43;;;;;;;0.82;0.30;;;27.40;98.00;;;;;;5089995;28;20043;-80
2022/07/12 11:35:28;;;;;;;0.70;0.40;;;27.40;97.80;;;;;;5104246;28;20104;-82
2022/07/12 11:37:57;;;;;;;0.60;0.30;;;27.30;95.80;;;;;;5106007;28;20048;-81
2022/07/12 11:40:24;;;;;;;0.52;0.30;;;27.30;98.60;;;;;;5088881;28;20060;-81
2022/07/12 11:42:58;;;;;;;0.95;0.50;;;27.30;98.30;;;;;;5087558;28;20051;-81
2022/07/12 11:45:31;;;;;;;1.30;0.38;;;27.40;97.50;;;;;;5089085;28;20093;-81
2022/07/12 11:48:02;;;;;;;0.40;0.30;;;27.40;95.10;;;;;;5103344;28;20047;-81
2022/07/12 11:50:29;;;;;;;1.00;0.30;;;27.30;95.10;;;;;;5071806;28;20040;-81
2022/07/12 11:52:55;;;;;;;0.40;0.35;;;27.30;95.30;;;;;;5087985;28;20047;-81
2022/07/12 11:55:22;;;;;;;0.75;0.30;;;27.00;96.00;;;;;;5071111;28;20051;-81
2022/07/12 11:57:48;;;;;;;0.82;0.30;;;27.70;96.00;;;;;;5088577;28;20044;-81
2022/07/12 12:00:23;;;;;;;0.80;0.40;;;27.80;96.50;;;;;;5104042;28;20122;-81
2022/07/12 12:02:52;;;;;;;2.80;0.45;;;28.00;95.30;;;;;;5072099;28;20047;-81
2022/07/12 12:05:20;;;;;;;1.00;0.28;;;28.10;96.20;;;;;;5087312;28;20398;-81
2022/07/12 12:07:45;;;;;;;2.28;0.30;;;28.10;95.30;;;;;;5088333;28;20130;-81
2022/07/12 12:10:13;;;;;;;0.80;0.20;;;28.10;94.80;;;;;;5070047;28;20138;-81
2022/07/12 12:12:56;;;;;;;0.73;0.38;;;28.20;93.50;;;;;;5104760;28;20114;-81
2022/07/12 12:15:33;;;;;;;0.25;0.20;;;28.30;87.00;;;;;;5088453;28;20039;-81
2022/07/12 12:18:02;;;;;;;0.32;0.30;;;28.30;92.00;;;;;;5102979;28;20047;-81
2022/07/12 12:20:31;;;;;;;0.82;0.20;;;28.30;91.90;;;;;;5088755;28;20047;-81
2022/07/12 12:23:05;;;;;;;0.20;0.17;;;28.30;90.90;;;;;;5087332;28;20046;-81
2022/07/12 12:25:33;;;;;;;1.02;0.47;;;28.40;91.00;;;;;;5104232;28;20145;-81
2022/07/12 12:28:00;;;;;;;0.85;0.20;;;28.40;89.80;;;;;;5070816;28;20044;-81
2022/07/12 12:30:30;;;;;;;1.83;0.30;;;28.40;89.80;;;;;;5103079;28;20404;-81
2022/07/12 12:32:58;;;;;;;1.10;0.25;;;28.50;91.10;;;;;;5105014;28;20073;-81
2022/07/12 12:35:32;;;;;;;2.83;0.45;;;28.80;91.00;;;;;;5103105;28;20427;-81
2022/07/12 12:38:00;;;;;;;1.08;0.47;;;28.80;86.10;;;;;;5104933;28;20066;-81
2022/07/12 12:40:31;;;;;;;0.45;0.30;;;28.80;86.30;;;;;;5103976;28;20086;-81
2022/07/12 12:43:12;;;;;;;0.60;0.30;;;28.80;82.60;;;;;;5103485;28;20231;-81
2022/07/12 12:45:55;;;;;;;0.90;0.20;;;28.80;75.40;;;;;;5087670;28;20066;-81
2022/07/12 12:48:22;;;;;;;1.70;0.40;;;28.80;75.40;;;;;;5085440;28;20485;-82
2022/07/12 12:50:50;;;;;;;1.33;0.30;;;28.70;78.80;;;;;;5087720;28;20052;-81
2022/07/12 12:53:18;;;;;;;1.48;0.40;;;28.60;75.20;;;;;;5086604;28;20130;-81
2022/07/12 12:55:45;;;;;;;0.75;0.25;;;28.60;76.10;;;;;;5086032;28;20050;-81
2022/07/12 12:58:12;;;;;;;1.55;0.20;;;28.60;75.60;;;;;;5087850;28;20089;-81
2022/07/12 13:00:41;;;;;;;4.57;0.40;;;28.60;74.30;;;;;;5069018;28;20063;-81